Time;durP1;ratioP1;P1;durP2;ratioP2;P2;SDS_P1;SDS_P2;PMS_P1;PMS_P2;Temp;Humidity;BMP_temperature;BMP_pressure;BME280_temperature;BME280_humidity;BME280_pressure;Samples;Min_cycle;Max_cycle;Signal;HPM_P1;HPM_P2
2022/04/10 00:02:01;;;;;;;2.35;2.17;;;;;;;;;;6101882;23;20026;-78
2022/04/10 00:04:29;;;;;;;2.58;2.38;;;;;;;;;;6132963;23;20701;-78
2022/04/10 00:06:57;;;;;;;1.77;1.67;;;;;;;;;;6074582;23;20030;-78
2022/04/10 00:09:26;;;;;;;4.45;4.05;;;;;;;;;;6129602;23;20025;-78
2022/04/10 00:11:54;;;;;;;6.25;2.65;;;;;;;;;;6073914;23;20021;-78
2022/04/10 00:14:22;;;;;;;3.25;3.05;;;;;;;;;;6126224;23;20030;-77
2022/04/10 00:16:50;;;;;;;5.07;2.35;;;;;;;;;;6133420;23;20021;-78
2022/04/10 00:19:19;;;;;;;2.58;2.38;;;;;;;;;;6122479;23;20030;-78
2022/04/10 00:21:47;;;;;;;2.22;2.03;;;;;;;;;;6130658;23;20021;-78
2022/04/10 00:24:15;;;;;;;8.80;4.50;;;;;;;;;;6134855;23;20033;-78
2022/04/10 00:26:43;;;;;;;10.35;3.80;;;;;;;;;;6126630;23;20033;-78
2022/04/10 00:29:11;;;;;;;2.80;2.28;;;;;;;;;;6133230;23;20014;-78
2022/04/10 00:31:39;;;;;;;5.78;2.45;;;;;;;;;;6135118;23;20446;-78
2022/04/10 00:34:07;;;;;;;5.93;2.53;;;;;;;;;;6129252;23;20018;-78
2022/04/10 00:36:35;;;;;;;3.70;2.13;;;;;;;;;;6135149;23;20014;-78
2022/04/10 00:39:04;;;;;;;2.88;2.67;;;;;;;;;;6124659;23;20041;-78
2022/04/10 00:41:32;;;;;;;4.50;2.55;;;;;;;;;;6133358;23;20346;-88
2022/04/10 00:44:03;;;;;;;2.53;2.33;;;;;;;;;;6100141;23;20038;-88
2022/04/10 00:46:31;;;;;;;1.98;1.88;;;;;;;;;;6076805;23;20022;-89
2022/04/10 00:49:13;;;;;;;2.13;2.03;;;;;;;;;;6109561;23;20041;-89
2022/04/10 00:51:46;;;;;;;4.75;2.88;;;;;;;;;;6111497;23;20033;-89
2022/04/10 00:54:18;;;;;;;2.85;2.55;;;;;;;;;;6130311;23;20034;-88
2022/04/10 00:56:46;;;;;;;2.85;2.15;;;;;;;;;;6138304;23;20029;-89
2022/04/10 00:59:15;;;;;;;2.80;2.40;;;;;;;;;;6126258;23;20022;-89
2022/04/10 01:01:45;;;;;;;4.35;2.75;;;;;;;;;;6107579;23;20022;-88
2022/04/10 01:04:34;;;;;;;3.42;2.38;;;;;;;;;;6103757;23;20018;-88
2022/04/10 01:07:11;;;;;;;1.80;1.70;;;;;;;;;;6082537;23;20029;-89
2022/04/10 01:09:42;;;;;;;2.38;2.15;;;;;;;;;;6132043;23;20041;-89
2022/04/10 01:12:11;;;;;;;4.80;2.70;;;;;;;;;;6111926;23;20342;-78
2022/04/10 01:14:42;;;;;;;3.28;2.88;;;;;;;;;;6100413;23;20025;-78
2022/04/10 01:17:14;;;;;;;2.97;2.55;;;;;;;;;;6106630;23;20033;-78
2022/04/10 01:19:43;;;;;;;6.68;3.35;;;;;;;;;;6107723;23;20013;-78
2022/04/10 01:22:20;;;;;;;3.38;3.13;;;;;;;;;;6073977;23;20041;-77
2022/04/10 01:24:53;;;;;;;6.43;3.20;;;;;;;;;;6107365;23;20024;-77
2022/04/10 01:27:22;;;;;;;4.47;2.40;;;;;;;;;;6108420;23;20014;-78
2022/04/10 01:29:50;;;;;;;2.85;2.65;;;;;;;;;;6129566;23;20018;-78
2022/04/10 01:32:18;;;;;;;3.97;3.67;;;;;;;;;;6134427;23;20018;-77
2022/04/10 01:35:28;;;;;;;3.88;3.10;;;;;;;;;;6099793;23;20272;-78
2022/04/10 01:37:57;;;;;;;2.92;2.75;;;;;;;;;;6102860;23;20350;-78
2022/04/10 01:40:30;;;;;;;2.58;2.38;;;;;;;;;;6108529;23;20537;-78
2022/04/10 01:42:58;;;;;;;2.72;2.50;;;;;;;;;;6124905;23;20022;-78
2022/04/10 01:45:27;;;;;;;15.55;2.50;;;;;;;;;;6128594;23;20018;-78
2022/04/10 01:47:55;;;;;;;2.58;2.38;;;;;;;;;;6107710;23;20441;-78
2022/04/10 01:50:24;;;;;;;3.15;2.95;;;;;;;;;;6101412;23;20030;-78
2022/04/10 01:52:53;;;;;;;5.13;2.90;;;;;;;;;;6133549;23;20018;-77
2022/04/10 01:55:23;;;;;;;2.95;2.65;;;;;;;;;;6108136;23;20021;-78
2022/04/10 01:57:51;;;;;;;3.88;2.60;;;;;;;;;;6103849;23;20047;-78
2022/04/10 02:00:19;;;;;;;6.93;2.53;;;;;;;;;;6107837;23;20351;-78
2022/04/10 02:02:49;;;;;;;3.72;2.72;;;;;;;;;;6099364;23;20032;-78
2022/04/10 02:05:20;;;;;;;3.22;2.95;;;;;;;;;;6105516;23;20018;-78
2022/04/10 02:07:48;;;;;;;4.63;4.22;;;;;;;;;;6107842;23;20014;-77
2022/04/10 02:10:16;;;;;;;2.53;2.33;;;;;;;;;;6101736;23;20026;-78
2022/04/10 02:12:47;;;;;;;5.55;3.67;;;;;;;;;;6107917;23;20014;-77
2022/04/10 02:15:16;;;;;;;3.40;3.10;;;;;;;;;;6097817;23;20025;-78
2022/04/10 02:17:44;;;;;;;4.55;2.80;;;;;;;;;;6103623;23;20253;-78
2022/04/10 02:20:12;;;;;;;4.00;3.70;;;;;;;;;;6133762;23;20018;-78
2022/04/10 02:22:40;;;;;;;6.00;3.42;;;;;;;;;;6099418;23;20029;-78
2022/04/10 02:25:08;;;;;;;4.78;3.03;;;;;;;;;;6122952;23;20014;-78
2022/04/10 02:27:37;;;;;;;4.75;4.32;;;;;;;;;;6137121;23;20009;-78
2022/04/10 02:30:06;;;;;;;3.25;2.90;;;;;;;;;;6157832;23;20021;-78
2022/04/10 02:32:34;;;;;;;6.32;3.60;;;;;;;;;;6136963;23;20021;-78
2022/04/10 02:35:02;;;;;;;3.22;2.90;;;;;;;;;;6127685;23;20029;-78
2022/04/10 02:37:30;;;;;;;3.40;3.10;;;;;;;;;;6132936;23;20025;-77
2022/04/10 02:39:58;;;;;;;3.20;2.88;;;;;;;;;;6163061;23;20013;-78
2022/04/10 02:42:27;;;;;;;2.75;2.53;;;;;;;;;;6129878;23;20024;-78
2022/04/10 02:44:56;;;;;;;5.57;3.42;;;;;;;;;;6133510;23;20446;-77
2022/04/10 02:47:24;;;;;;;4.13;3.13;;;;;;;;;;6137116;23;20039;-78
2022/04/10 02:49:52;;;;;;;4.68;3.17;;;;;;;;;;6126270;23;20018;-78
2022/04/10 02:52:22;;;;;;;4.30;4.03;;;;;;;;;;6136410;23;20021;-78
2022/04/10 02:54:51;;;;;;;3.05;2.85;;;;;;;;;;6127748;23;20733;-78
2022/04/10 02:57:38;;;;;;;3.60;2.95;;;;;;;;;;6137214;23;20410;-78
2022/04/10 03:00:24;;;;;;;3.58;3.22;;;;;;;;;;6164085;23;20022;-88
2022/04/10 03:03:11;;;;;;;3.38;2.75;;;;;;;;;;6154823;23;20030;-88
2022/04/10 03:05:58;;;;;;;5.32;4.25;;;;;;;;;;6138708;23;20018;-89
2022/04/10 03:08:45;;;;;;;4.95;3.33;;;;;;;;;;6141871;23;20025;-88
2022/04/10 03:11:57;;;;;;;5.78;3.10;;;;;;;;;;6137049;23;20449;-87
2022/04/10 03:15:37;;;;;;;4.90;2.65;;;;;;;;;;6153668;23;20445;-87
2022/04/10 03:19:36;;;;;;;3.97;2.75;;;;;;;;;;6142412;23;20017;-88
2022/04/10 03:23:19;;;;;;;4.25;3.00;;;;;;;;;;6133479;23;20025;-88
2022/04/10 03:26:54;;;;;;;7.88;4.68;;;;;;;;;;6135763;23;20017;-88
2022/04/10 03:30:50;;;;;;;3.47;3.25;;;;;;;;;;6137937;23;20021;-86
2022/04/10 03:34:25;;;;;;;4.45;3.03;;;;;;;;;;6136728;23;20021;-86
2022/04/10 03:37:44;;;;;;;4.13;2.83;;;;;;;;;;6137964;23;20037;-87
2022/04/10 03:40:31;;;;;;;5.50;3.83;;;;;;;;;;6164070;23;20025;-85
2022/04/10 03:43:17;;;;;;;3.33;3.00;;;;;;;;;;6131606;23;20025;-88
2022/04/10 03:46:05;;;;;;;5.20;4.70;;;;;;;;;;6135904;23;20021;-87
2022/04/10 03:48:56;;;;;;;2.42;2.25;;;;;;;;;;6141090;23;20302;-86
2022/04/10 03:51:42;;;;;;;4.18;3.78;;;;;;;;;;6118413;23;20453;-89
2022/04/10 03:54:31;;;;;;;6.07;3.80;;;;;;;;;;6101251;23;20026;-86
2022/04/10 03:57:20;;;;;;;4.05;3.63;;;;;;;;;;6140938;23;20478;-87
2022/04/10 04:00:07;;;;;;;3.67;3.38;;;;;;;;;;6143034;23;20025;-88
2022/04/10 04:03:00;;;;;;;5.63;3.13;;;;;;;;;;6155236;23;20021;-89
2022/04/10 04:05:51;;;;;;;4.40;3.05;;;;;;;;;;6138620;23;20077;-89
2022/04/10 04:08:40;;;;;;;6.25;3.25;;;;;;;;;;6122171;23;20311;-89
2022/04/10 04:11:28;;;;;;;4.35;2.92;;;;;;;;;;6093186;23;20022;-88
2022/04/10 04:14:14;;;;;;;6.25;2.97;;;;;;;;;;6136847;23;20029;-89
2022/04/10 04:17:01;;;;;;;4.78;3.65;;;;;;;;;;6142579;23;20025;-89
2022/04/10 04:19:50;;;;;;;8.07;3.63;;;;;;;;;;6164927;23;20021;-89
2022/04/10 04:22:36;;;;;;;3.63;3.33;;;;;;;;;;6134679;23;20018;-89
2022/04/10 04:25:24;;;;;;;6.30;4.63;;;;;;;;;;6140262;23;20325;-89
2022/04/10 04:28:13;;;;;;;3.15;2.83;;;;;;;;;;6123372;23;20021;-89
2022/04/10 04:30:59;;;;;;;3.97;3.38;;;;;;;;;;6134128;23;20021;-89
2022/04/10 04:33:46;;;;;;;5.88;2.15;;;;;;;;;;6138668;23;20017;-89
2022/04/10 04:36:33;;;;;;;3.67;3.38;;;;;;;;;;6142847;23;20025;-89
2022/04/10 04:39:20;;;;;;;2.97;2.67;;;;;;;;;;6131153;23;20025;-88
2022/04/10 04:42:08;;;;;;;4.80;4.25;;;;;;;;;;6137580;23;20457;-89
2022/04/10 04:44:55;;;;;;;11.88;3.72;;;;;;;;;;6141477;23;20026;-88
2022/04/10 04:47:42;;;;;;;4.18;3.70;;;;;;;;;;6143071;23;20484;-89
2022/04/10 04:50:29;;;;;;;7.45;3.65;;;;;;;;;;6135764;23;20025;-89
2022/04/10 04:53:15;;;;;;;4.55;3.47;;;;;;;;;;6140729;23;20026;-89
2022/04/10 04:56:03;;;;;;;4.50;3.15;;;;;;;;;;6143247;23;20025;-89
2022/04/10 04:58:53;;;;;;;5.65;3.85;;;;;;;;;;6133934;23;20026;-88
2022/04/10 05:01:41;;;;;;;9.77;3.78;;;;;;;;;;6138554;23;20457;-89
2022/04/10 05:04:29;;;;;;;4.57;4.15;;;;;;;;;;6121376;23;20052;-88
2022/04/10 05:07:17;;;;;;;6.25;3.08;;;;;;;;;;6112428;23;20044;-89
2022/04/10 05:10:04;;;;;;;3.22;3.00;;;;;;;;;;6136659;23;20021;-89
2022/04/10 05:12:54;;;;;;;3.50;3.20;;;;;;;;;;6141942;23;20029;-88
2022/04/10 05:15:44;;;;;;;4.30;3.53;;;;;;;;;;6142430;23;20029;-89
2022/04/10 05:18:33;;;;;;;5.45;4.05;;;;;;;;;;6133822;23;20029;-88
2022/04/10 05:21:19;;;;;;;4.38;3.30;;;;;;;;;;6139880;23;20026;-89
2022/04/10 05:24:08;;;;;;;4.05;3.67;;;;;;;;;;6141898;23;20018;-88
2022/04/10 05:26:54;;;;;;;11.90;4.95;;;;;;;;;;6133336;23;20386;-89
2022/04/10 05:29:41;;;;;;;3.70;3.30;;;;;;;;;;6118269;23;20052;-89
2022/04/10 05:32:28;;;;;;;4.78;3.15;;;;;;;;;;6142398;23;20360;-88
2022/04/10 05:35:16;;;;;;;4.22;3.35;;;;;;;;;;6111365;23;20033;-89
2022/04/10 05:38:04;;;;;;;2.83;2.63;;;;;;;;;;6136684;23;20029;-89
2022/04/10 05:40:53;;;;;;;4.82;4.03;;;;;;;;;;6142803;23;20022;-89
2022/04/10 05:43:44;;;;;;;7.75;5.63;;;;;;;;;;6100643;23;20026;-90
2022/04/10 05:46:31;;;;;;;6.80;4.28;;;;;;;;;;6135900;23;20322;-89
2022/04/10 05:49:21;;;;;;;3.88;3.53;;;;;;;;;;6140602;23;20021;-89
2022/04/10 05:52:08;;;;;;;3.40;3.00;;;;;;;;;;6143162;23;20025;-89
2022/04/10 05:54:59;;;;;;;3.92;3.53;;;;;;;;;;6113978;23;20021;-89
2022/04/10 05:57:49;;;;;;;4.43;3.28;;;;;;;;;;6137699;23;20018;-89
2022/04/10 06:00:41;;;;;;;5.43;4.88;;;;;;;;;;6142800;23;20452;-89
2022/04/10 06:03:35;;;;;;;4.28;3.42;;;;;;;;;;6121547;23;20021;-90
2022/04/10 06:06:24;;;;;;;4.78;2.92;;;;;;;;;;6138962;23;20025;-87
2022/04/10 06:09:21;;;;;;;4.03;3.63;;;;;;;;;;6141697;23;20017;-91
2022/04/10 06:12:08;;;;;;;3.53;3.13;;;;;;;;;;6166101;23;20013;-89
2022/04/10 06:15:01;;;;;;;3.05;2.85;;;;;;;;;;6131610;23;20018;-90
2022/04/10 06:17:30;;;;;;;4.85;4.45;;;;;;;;;;6138847;23;20020;-87
2022/04/10 06:20:00;;;;;;;4.00;3.70;;;;;;;;;;6114235;23;20010;-88
2022/04/10 06:22:33;;;;;;;4.40;3.70;;;;;;;;;;6129887;23;20029;-88
2022/04/10 06:25:02;;;;;;;4.38;3.95;;;;;;;;;;6103102;23;20021;-90
2022/04/10 06:27:30;;;;;;;3.60;3.30;;;;;;;;;;6137223;23;20321;-90
2022/04/10 06:29:58;;;;;;;8.63;6.15;;;;;;;;;;6132064;23;20476;-89
2022/04/10 06:32:26;;;;;;;10.23;5.55;;;;;;;;;;6138288;23;20341;-89
2022/04/10 06:34:57;;;;;;;;;;;;;;;;;;6103732;23;20484;-89
2022/04/10 06:37:25;;;;;;;5.88;3.75;;;;;;;;;;6135169;23;19920;-90
2022/04/10 06:39:53;;;;;;;4.28;3.88;;;;;;;;;;6163669;23;20018;-88
2022/04/10 06:42:25;;;;;;;4.47;4.03;;;;;;;;;;6131328;23;20032;-89
2022/04/10 06:45:17;;;;;;;4.60;3.08;;;;;;;;;;6152141;23;20350;-90
2022/04/10 06:47:56;;;;;;;4.70;3.70;;;;;;;;;;6163678;23;20025;-89
2022/04/10 06:50:37;;;;;;;2.40;2.30;;;;;;;;;;6156199;23;20036;-90
2022/04/10 06:53:12;;;;;;;4.93;4.53;;;;;;;;;;6135029;23;20041;-88
2022/04/10 06:55:44;;;;;;;;;;;;;;;;;;6138207;23;20013;-89
2022/04/10 06:58:12;;;;;;;5.00;4.18;;;;;;;;;;6130482;23;19920;-79
2022/04/10 07:00:41;;;;;;;6.88;5.22;;;;;;;;;;6102177;23;20018;-80
2022/04/10 07:03:12;;;;;;;6.53;4.75;;;;;;;;;;6126084;23;20024;-79
2022/04/10 07:05:41;;;;;;;6.13;4.57;;;;;;;;;;6128123;23;20350;-79
2022/04/10 07:08:16;;;;;;;10.80;6.05;;;;;;;;;;6136071;23;20018;-79
2022/04/10 07:10:44;;;;;;;6.07;5.47;;;;;;;;;;6124985;23;20032;-79
2022/04/10 07:13:17;;;;;;;9.45;6.03;;;;;;;;;;6132143;23;20024;-80
2022/04/10 07:15:55;;;;;;;5.68;4.45;;;;;;;;;;6136642;23;20028;-85
2022/04/10 07:18:27;;;;;;;6.77;5.43;;;;;;;;;;6130106;23;20030;-84
2022/04/10 07:21:00;;;;;;;5.10;4.68;;;;;;;;;;6100901;23;20018;-85
2022/04/10 07:23:43;;;;;;;;;;;;;;;;;;6137014;23;20016;-85
2022/04/10 07:26:37;;;;;;;14.02;6.10;;;;;;;;;;6146996;23;20245;-85
2022/04/10 07:29:12;;;;;;;;;;;;;;;;;;6135132;23;20013;-86
2022/04/10 07:31:41;;;;;;;8.77;4.90;;;;;;;;;;6135799;23;19917;-85
2022/04/10 07:34:10;;;;;;;4.60;4.18;;;;;;;;;;6130559;23;20040;-86
2022/04/10 07:36:56;;;;;;;5.20;4.72;;;;;;;;;;6105311;23;20025;-86
2022/04/10 07:39:28;;;;;;;8.27;7.13;;;;;;;;;;6136562;23;20013;-85
2022/04/10 07:42:08;;;;;;;6.10;4.53;;;;;;;;;;6101445;23;20029;-87
2022/04/10 07:44:59;;;;;;;10.07;4.45;;;;;;;;;;6133265;23;20028;-85
2022/04/10 07:48:00;;;;;;;4.90;4.47;;;;;;;;;;6134452;23;20025;-87
2022/04/10 07:50:40;;;;;;;5.50;4.75;;;;;;;;;;6126834;23;20026;-85
2022/04/10 07:53:10;;;;;;;8.98;5.40;;;;;;;;;;6134689;23;20014;-80
2022/04/10 07:55:44;;;;;;;5.70;5.13;;;;;;;;;;6136109;23;20029;-82
2022/04/10 07:58:12;;;;;;;8.15;5.35;;;;;;;;;;6130477;23;20330;-88
2022/04/10 08:00:40;;;;;;;9.48;5.28;;;;;;;;;;6136403;23;20021;-82
2022/04/10 08:03:09;;;;;;;6.57;4.85;;;;;;;;;;6126213;23;20473;-82
2022/04/10 08:06:04;;;;;;;7.97;5.57;;;;;;;;;;6128991;23;20026;-81
2022/04/10 08:08:33;;;;;;;6.80;4.40;;;;;;;;;;6101519;23;20342;-81
2022/04/10 08:11:01;;;;;;;6.57;5.10;;;;;;;;;;6153285;23;20491;-82
2022/04/10 08:13:32;;;;;;;8.88;5.78;;;;;;;;;;6158713;23;20029;-79
2022/04/10 08:16:01;;;;;;;4.57;4.10;;;;;;;;;;6136626;23;20014;-80
2022/04/10 08:18:29;;;;;;;6.28;5.75;;;;;;;;;;6154957;23;20357;-82
2022/04/10 08:20:57;;;;;;;5.68;4.82;;;;;;;;;;6161656;23;20013;-81
2022/04/10 08:23:26;;;;;;;6.70;6.03;;;;;;;;;;6162132;23;20029;-81
2022/04/10 08:25:54;;;;;;;4.75;4.35;;;;;;;;;;6157309;23;20033;-81
2022/04/10 08:28:22;;;;;;;5.43;4.72;;;;;;;;;;6162834;23;20014;-80
2022/04/10 08:30:51;;;;;;;6.80;5.07;;;;;;;;;;6154117;23;20037;-84
2022/04/10 08:33:19;;;;;;;5.28;3.83;;;;;;;;;;6160098;23;20029;-82
2022/04/10 08:35:47;;;;;;;5.38;4.90;;;;;;;;;;6162647;23;20014;-86
2022/04/10 08:38:16;;;;;;;12.50;4.30;;;;;;;;;;6124829;23;20017;-82
2022/04/10 08:40:45;;;;;;;4.13;3.83;;;;;;;;;;6162996;23;20024;-83
2022/04/10 08:43:14;;;;;;;4.70;4.40;;;;;;;;;;6127907;23;20341;-85
2022/04/10 08:45:44;;;;;;;4.18;3.88;;;;;;;;;;6157692;23;20025;-85
2022/04/10 08:48:12;;;;;;;10.30;5.47;;;;;;;;;;6163977;23;20024;-83
2022/04/10 08:50:41;;;;;;;3.08;2.83;;;;;;;;;;6129756;23;20021;-88
2022/04/10 08:53:09;;;;;;;5.05;3.78;;;;;;;;;;6127248;23;20021;-81
2022/04/10 08:55:41;;;;;;;5.60;4.25;;;;;;;;;;6138996;23;20020;-86
2022/04/10 08:58:09;;;;;;;4.43;3.88;;;;;;;;;;6131818;23;20377;-80
2022/04/10 09:00:37;;;;;;;4.85;4.18;;;;;;;;;;6138232;23;20445;-77
2022/04/10 09:03:05;;;;;;;4.32;3.92;;;;;;;;;;6154181;23;20040;-80
2022/04/10 09:05:33;;;;;;;4.40;3.95;;;;;;;;;;6160219;23;20021;-78
2022/04/10 09:08:11;;;;;;;3.40;2.50;;;;;;;;;;6163346;23;20022;-78
2022/04/10 09:10:58;;;;;;;5.10;4.63;;;;;;;;;;6153442;23;20374;-80
2022/04/10 09:13:28;;;;;;;3.97;3.58;;;;;;;;;;6160943;23;20022;-84
2022/04/10 09:16:06;;;;;;;4.28;3.40;;;;;;;;;;6164250;23;20468;-85
2022/04/10 09:18:54;;;;;;;5.25;4.28;;;;;;;;;;6130203;23;20025;-86
2022/04/10 09:21:24;;;;;;;5.25;3.28;;;;;;;;;;6161272;23;20346;-87
2022/04/10 09:23:53;;;;;;;5.43;4.93;;;;;;;;;;6164545;23;20010;-84
2022/04/10 09:26:21;;;;;;;5.38;4.40;;;;;;;;;;6153084;23;20025;-82
2022/04/10 09:28:50;;;;;;;4.03;3.65;;;;;;;;;;6153605;23;20022;-81
2022/04/10 09:31:29;;;;;;;4.85;3.75;;;;;;;;;;6152927;23;20048;-81
2022/04/10 09:33:58;;;;;;;4.68;4.18;;;;;;;;;;6132723;23;20028;-81
2022/04/10 09:36:41;;;;;;;5.88;4.78;;;;;;;;;;6128108;23;20017;-80
2022/04/10 09:39:12;;;;;;;4.38;3.30;;;;;;;;;;6127244;23;20025;-81
2022/04/10 09:41:41;;;;;;;5.53;4.32;;;;;;;;;;6153390;23;20018;-80
2022/04/10 09:44:12;;;;;;;5.78;4.85;;;;;;;;;;6127513;23;20018;-82
2022/04/10 09:46:41;;;;;;;3.95;3.65;;;;;;;;;;6126970;23;20025;-81
2022/04/10 09:49:13;;;;;;;4.07;3.55;;;;;;;;;;6135256;23;20452;-81
2022/04/10 09:51:59;;;;;;;5.97;4.30;;;;;;;;;;6137529;23;20370;-82
2022/04/10 09:54:32;;;;;;;6.30;4.47;;;;;;;;;;6156256;23;20032;-82
2022/04/10 09:57:04;;;;;;;4.10;3.70;;;;;;;;;;6102796;23;20442;-81
2022/04/10 09:59:36;;;;;;;5.65;4.28;;;;;;;;;;6163421;23;20009;-81
2022/04/10 10:02:07;;;;;;;5.45;3.53;;;;;;;;;;6132558;23;20022;-80
2022/04/10 10:04:37;;;;;;;4.03;3.25;;;;;;;;;;6163358;23;20028;-83
2022/04/10 10:07:06;;;;;;;3.10;2.80;;;;;;;;;;6153890;23;20022;-81
2022/04/10 10:09:37;;;;;;;3.15;2.85;;;;;;;;;;6159172;23;20022;-83
2022/04/10 10:12:06;;;;;;;8.23;3.85;;;;;;;;;;6127647;23;20018;-84
2022/04/10 10:14:34;;;;;;;3.95;3.55;;;;;;;;;;6106047;23;20052;-83
2022/04/10 10:17:03;;;;;;;4.70;3.13;;;;;;;;;;6136486;23;20062;-83
2022/04/10 10:19:36;;;;;;;3.25;3.05;;;;;;;;;;6163346;23;20094;-82
2022/04/10 10:22:07;;;;;;;5.43;3.22;;;;;;;;;;6126982;23;20064;-84
2022/04/10 10:24:39;;;;;;;3.70;3.40;;;;;;;;;;6126660;23;20021;-89
2022/04/10 10:27:16;;;;;;;2.78;2.58;;;;;;;;;;6153797;23;20319;-84
2022/04/10 10:30:02;;;;;;;3.00;2.80;;;;;;;;;;6159229;23;20040;-83
2022/04/10 10:32:44;;;;;;;2.70;2.50;;;;;;;;;;6163694;23;20014;-81
2022/04/10 10:35:13;;;;;;;2.75;2.55;;;;;;;;;;6126162;23;20036;-79
2022/04/10 10:37:52;;;;;;;3.60;3.33;;;;;;;;;;6078106;23;20032;-80
2022/04/10 10:40:20;;;;;;;3.67;2.67;;;;;;;;;;6163152;23;20018;-82
2022/04/10 10:42:49;;;;;;;5.18;2.50;;;;;;;;;;6155323;23;20036;-80
2022/04/10 10:45:37;;;;;;;7.53;4.75;;;;;;;;;;6158606;23;20021;-81
2022/04/10 10:48:24;;;;;;;5.65;4.22;;;;;;;;;;6163317;23;20021;-78
2022/04/10 10:50:53;;;;;;;2.53;2.13;;;;;;;;;;6154813;23;20025;-79
2022/04/10 10:53:40;;;;;;;3.58;3.10;;;;;;;;;;6160485;23;20028;-80
2022/04/10 10:56:13;;;;;;;3.15;2.88;;;;;;;;;;6163665;23;20029;-80
2022/04/10 10:59:20;;;;;;;2.38;2.28;;;;;;;;;;6153856;23;20335;-79
2022/04/10 11:02:01;;;;;;;3.10;2.90;;;;;;;;;;6126691;23;20018;-80
2022/04/10 11:04:33;;;;;;;2.92;2.72;;;;;;;;;;6162701;23;20036;-81
2022/04/10 11:07:14;;;;;;;3.20;2.90;;;;;;;;;;6152485;23;20515;-81
2022/04/10 11:10:01;;;;;;;2.10;2.00;;;;;;;;;;6158355;23;20338;-80
2022/04/10 11:12:30;;;;;;;2.55;2.40;;;;;;;;;;6162982;23;20046;-80
2022/04/10 11:15:01;;;;;;;3.55;3.13;;;;;;;;;;6154285;23;20029;-80
2022/04/10 11:17:30;;;;;;;3.45;2.97;;;;;;;;;;6160296;23;20029;-82
2022/04/10 11:20:01;;;;;;;3.13;2.92;;;;;;;;;;6163129;23;20017;-80
2022/04/10 11:22:33;;;;;;;5.90;4.25;;;;;;;;;;6155847;23;20026;-81
2022/04/10 11:25:06;;;;;;;3.25;3.00;;;;;;;;;;6161603;23;20013;-80
2022/04/10 11:27:41;;;;;;;3.75;3.42;;;;;;;;;;6163467;23;20433;-82
2022/04/10 11:30:14;;;;;;;7.25;3.38;;;;;;;;;;6126114;23;20025;-81
2022/04/10 11:32:55;;;;;;;5.82;3.30;;;;;;;;;;6102737;23;20024;-80
2022/04/10 11:35:23;;;;;;;2.88;2.67;;;;;;;;;;6125458;23;20029;-81
2022/04/10 11:37:52;;;;;;;3.53;3.25;;;;;;;;;;6101485;23;20036;-82
2022/04/10 11:40:22;;;;;;;5.40;3.67;;;;;;;;;;6136658;23;20522;-81
2022/04/10 11:42:51;;;;;;;3.35;3.00;;;;;;;;;;6126075;23;20029;-80
2022/04/10 11:45:19;;;;;;;2.78;2.58;;;;;;;;;;6157706;23;20022;-82
2022/04/10 11:47:48;;;;;;;3.28;3.08;;;;;;;;;;6162477;23;20433;-81
2022/04/10 11:50:18;;;;;;;3.80;3.50;;;;;;;;;;6101641;23;20021;-81
2022/04/10 11:52:58;;;;;;;4.35;4.05;;;;;;;;;;6102338;23;20350;-82
2022/04/10 11:55:33;;;;;;;2.53;1.95;;;;;;;;;;6110151;23;20029;-81
2022/04/10 11:58:10;;;;;;;2.97;2.22;;;;;;;;;;6157076;23;20021;-81
2022/04/10 12:00:38;;;;;;;2.75;2.55;;;;;;;;;;6162815;23;20025;-81
2022/04/10 12:03:06;;;;;;;3.20;3.00;;;;;;;;;;6126926;23;20033;-82
2022/04/10 12:05:37;;;;;;;3.67;2.25;;;;;;;;;;6159162;23;20021;-81
2022/04/10 12:08:05;;;;;;;3.95;2.53;;;;;;;;;;6136097;23;20449;-77
2022/04/10 12:10:33;;;;;;;3.33;2.10;;;;;;;;;;6156297;23;20029;-77
2022/04/10 12:13:03;;;;;;;4.60;3.03;;;;;;;;;;6161590;23;20017;-76
2022/04/10 12:15:33;;;;;;;1.85;1.75;;;;;;;;;;6164419;23;20017;-78
2022/04/10 12:18:09;;;;;;;3.00;2.33;;;;;;;;;;6159731;23;20048;-79
2022/04/10 12:20:38;;;;;;;2.53;2.33;;;;;;;;;;6165352;23;20020;-79
2022/04/10 12:23:16;;;;;;;1.80;1.70;;;;;;;;;;6155355;23;20025;-79
2022/04/10 12:25:44;;;;;;;4.95;2.67;;;;;;;;;;6160954;23;20033;-77
2022/04/10 12:28:13;;;;;;;2.05;1.95;;;;;;;;;;6139302;23;20014;-77
2022/04/10 12:30:41;;;;;;;2.88;2.65;;;;;;;;;;6157176;23;20029;-76
2022/04/10 12:33:10;;;;;;;2.63;2.42;;;;;;;;;;6162955;23;20728;-76
2022/04/10 12:35:39;;;;;;;2.85;2.70;;;;;;;;;;6138899;23;20453;-76
2022/04/10 12:38:07;;;;;;;2.78;2.58;;;;;;;;;;6157921;23;20033;-76
2022/04/10 12:40:35;;;;;;;2.70;2.50;;;;;;;;;;6164736;23;20032;-76
2022/04/10 12:43:09;;;;;;;3.17;2.97;;;;;;;;;;6155259;23;20026;-75
2022/04/10 12:45:38;;;;;;;4.88;3.08;;;;;;;;;;6158638;23;20021;-76
2022/04/10 12:48:19;;;;;;;2.63;2.40;;;;;;;;;;6128274;23;20018;-77
2022/04/10 12:51:03;;;;;;;6.82;2.60;;;;;;;;;;6156295;23;20330;-77
2022/04/10 12:53:30;;;;;;;2.67;2.47;;;;;;;;;;6161019;23;20021;-77
2022/04/10 12:55:59;;;;;;;2.78;2.58;;;;;;;;;;6164866;23;20017;-77
2022/04/10 12:58:30;;;;;;;2.83;2.25;;;;;;;;;;6157409;23;20029;-77
2022/04/10 13:01:01;;;;;;;2.85;2.65;;;;;;;;;;6163206;23;20013;-78
2022/04/10 13:03:30;;;;;;;3.00;2.70;;;;;;;;;;6164202;23;20028;-78
2022/04/10 13:05:59;;;;;;;2.60;2.40;;;;;;;;;;6103567;23;20030;-77
2022/04/10 13:08:28;;;;;;;7.25;4.28;;;;;;;;;;6163628;23;20311;-77
2022/04/10 13:10:57;;;;;;;2.97;2.70;;;;;;;;;;6155531;23;20058;-78
2022/04/10 13:13:55;;;;;;;2.75;2.53;;;;;;;;;;6160375;23;20026;-77
2022/04/10 13:16:27;;;;;;;3.53;2.45;;;;;;;;;;6164969;23;20330;-79
2022/04/10 13:19:03;;;;;;;3.50;3.10;;;;;;;;;;6127752;23;20026;-79
2022/04/10 13:21:33;;;;;;;5.47;3.30;;;;;;;;;;6136741;23;20028;-80
2022/04/10 13:24:02;;;;;;;2.88;2.03;;;;;;;;;;6104817;23;20345;-80
2022/04/10 13:26:31;;;;;;;3.35;3.10;;;;;;;;;;6158031;23;20017;-79
2022/04/10 13:29:00;;;;;;;3.10;2.78;;;;;;;;;;6164570;23;20018;-79
2022/04/10 13:31:28;;;;;;;2.72;2.53;;;;;;;;;;6165258;23;20016;-78
2022/04/10 13:33:56;;;;;;;2.45;2.25;;;;;;;;;;6160240;23;20021;-77
2022/04/10 13:36:24;;;;;;;4.97;2.90;;;;;;;;;;6138743;23;20018;-78
2022/04/10 13:38:53;;;;;;;2.38;2.17;;;;;;;;;;6155485;23;20040;-81
2022/04/10 13:41:21;;;;;;;2.28;1.98;;;;;;;;;;6135826;23;20017;-78
2022/04/10 13:43:49;;;;;;;2.25;2.08;;;;;;;;;;6163997;23;20021;-79
2022/04/10 13:46:17;;;;;;;3.53;2.40;;;;;;;;;;6154634;23;20036;-78
2022/04/10 13:48:46;;;;;;;3.42;3.20;;;;;;;;;;6137103;23;20010;-78
2022/04/10 13:51:14;;;;;;;1.75;1.65;;;;;;;;;;6128004;23;20542;-79
2022/04/10 13:53:42;;;;;;;2.95;2.67;;;;;;;;;;6160669;23;20049;-78
2022/04/10 13:56:11;;;;;;;4.13;3.00;;;;;;;;;;6140309;23;20013;-79
2022/04/10 13:58:39;;;;;;;2.25;2.15;;;;;;;;;;6131405;23;20472;-77
2022/04/10 14:01:08;;;;;;;3.03;2.78;;;;;;;;;;6128387;23;20018;-78
2022/04/10 14:03:36;;;;;;;2.63;2.42;;;;;;;;;;6138519;23;20016;-78
2022/04/10 14:06:04;;;;;;;2.40;2.30;;;;;;;;;;6159452;23;20030;-78
2022/04/10 14:08:33;;;;;;;3.30;2.95;;;;;;;;;;6128738;23;20358;-79
2022/04/10 14:11:20;;;;;;;2.35;2.25;;;;;;;;;;6154605;23;20029;-78
2022/04/10 14:13:49;;;;;;;5.38;3.95;;;;;;;;;;6103403;23;20017;-79
2022/04/10 14:16:19;;;;;;;3.72;2.42;;;;;;;;;;6164764;23;20018;-77
2022/04/10 14:18:47;;;;;;;3.55;2.67;;;;;;;;;;6129848;23;20030;-77
2022/04/10 14:21:15;;;;;;;3.50;3.15;;;;;;;;;;6162015;23;20014;-77
2022/04/10 14:23:44;;;;;;;3.20;2.78;;;;;;;;;;6163134;23;20013;-77
2022/04/10 14:26:12;;;;;;;4.25;3.65;;;;;;;;;;6157553;23;20034;-77
2022/04/10 14:28:40;;;;;;;5.60;3.47;;;;;;;;;;6163098;23;20010;-77
2022/04/10 14:31:09;;;;;;;3.40;3.15;;;;;;;;;;6102861;23;20036;-78
2022/04/10 14:33:37;;;;;;;3.60;3.30;;;;;;;;;;6127129;23;20342;-78
2022/04/10 14:36:05;;;;;;;2.13;1.75;;;;;;;;;;6137822;23;20009;-78
2022/04/10 14:38:33;;;;;;;3.00;2.70;;;;;;;;;;6129380;23;20361;-77
2022/04/10 14:41:04;;;;;;;2.28;2.10;;;;;;;;;;6126924;23;20496;-78
2022/04/10 14:43:33;;;;;;;2.78;2.58;;;;;;;;;;6103643;23;20017;-77
2022/04/10 14:46:01;;;;;;;2.30;2.10;;;;;;;;;;6130008;23;20033;-78
2022/04/10 14:48:29;;;;;;;4.25;3.85;;;;;;;;;;6137589;23;20025;-80
2022/04/10 14:50:57;;;;;;;3.80;3.50;;;;;;;;;;6155162;23;20040;-77
2022/04/10 14:53:26;;;;;;;2.75;2.53;;;;;;;;;;6134469;23;20029;-78
2022/04/10 14:55:54;;;;;;;6.15;3.42;;;;;;;;;;6137742;23;20017;-78
2022/04/10 14:58:22;;;;;;;3.55;2.65;;;;;;;;;;6156722;23;20017;-77
2022/04/10 15:00:50;;;;;;;3.47;2.78;;;;;;;;;;6163498;23;20014;-77
2022/04/10 15:03:18;;;;;;;3.25;3.03;;;;;;;;;;6125900;23;20393;-77
2022/04/10 15:05:46;;;;;;;4.60;3.67;;;;;;;;;;6132983;23;20342;-78
2022/04/10 15:08:14;;;;;;;5.50;3.60;;;;;;;;;;6162385;23;20017;-78
2022/04/10 15:10:44;;;;;;;3.65;3.33;;;;;;;;;;6155109;23;20465;-77
2022/04/10 15:13:13;;;;;;;3.78;3.45;;;;;;;;;;6161491;23;20017;-78
2022/04/10 15:15:41;;;;;;;4.07;3.67;;;;;;;;;;6163289;23;20059;-78
2022/04/10 15:18:13;;;;;;;2.78;2.58;;;;;;;;;;6157328;23;20060;-78
2022/04/10 15:20:41;;;;;;;4.82;3.88;;;;;;;;;;6163740;23;20014;-81
2022/04/10 15:23:10;;;;;;;3.08;2.83;;;;;;;;;;6102036;23;20022;-87
2022/04/10 15:25:38;;;;;;;2.53;2.33;;;;;;;;;;6129239;23;20021;-88
2022/04/10 15:28:06;;;;;;;3.03;2.72;;;;;;;;;;6102437;23;20017;-88
2022/04/10 15:30:35;;;;;;;3.10;2.92;;;;;;;;;;6129601;23;20025;-88
2022/04/10 15:33:03;;;;;;;3.22;2.92;;;;;;;;;;6101438;23;20017;-87
2022/04/10 15:35:31;;;;;;;3.88;3.58;;;;;;;;;;6102453;23;20018;-89